Kirtley, Wyoming
Current Conditions -  °F | °C
As of 2:35 PM on Friday 28 Nov 2014 (Local Time) from KGUR Reporting Station
Clear Clear  
Wind Chill: 71°   Ceiling: Unl
Heat Index: 71°   Visibility: 10mi
Dew Point: 17°   Wind: 28mph
Humidity: 13%   Direction: 270°W
Pressure: 29.72"   Gusts: 43mph
Location:  42.8183°N, 104.414°W
Report Text: KGUR 282135Z AUTO 27024G37KT 10SM CLR 22/M08 A2972 RMK AO2 T02151085
Loading
Personal Weather Stations






























Interactive Weather Map New forecast layout! Learn more

10-Day Weather Forecast

Advertisements
Track Severe Weather on mobile